Rosette, Utah
Current Conditions -  °F | °C
As of 1:58 AM on Monday 20 Oct 2014 (Local Time) from KU16 Reporting Station
Clear Clear  
Wind Chill: 43°   Ceiling: Unl
Heat Index: 43°   Visibility: 10mi
Dew Point: 32°   Wind: 0mph
Humidity: 65%   Direction: NA
Pressure: 30.01"   Gusts: NA
Location:  41.7631°N, 113.334°W
Report Text: KU16 200758Z AUTO 00000KT 10SM CLR 06/00 A3001 RMK AO2 SLP789 T00610000 $
Loading
Personal Weather Stations






























Interactive Weather Map
Tropical Storm Tracking
New forecast layout! Learn more

10-Day Weather Forecast

Advertisements
Track Severe Weather on mobile